createdAt,value
2018-04-16T00:01:05.703Z,65.10
2018-04-16T00:03:33.832Z,65.10
2018-04-16T00:06:01.923Z,65.50
2018-04-16T00:08:30.034Z,65.30
2018-04-16T00:10:58.144Z,65.00
2018-04-16T00:13:26.267Z,65.10
2018-04-16T00:15:54.447Z,65.00
2018-04-16T00:18:22.565Z,64.90
2018-04-16T00:20:50.739Z,64.90
2018-04-16T00:23:18.855Z,64.80
2018-04-16T00:25:47.758Z,65.60
2018-04-16T00:28:15.867Z,64.80
2018-04-16T00:30:43.996Z,64.40
2018-04-16T00:33:17.663Z,64.70
2018-04-16T00:35:52.111Z,65.20
2018-04-16T00:38:25.986Z,65.10
2018-04-16T00:41:00.599Z,65.30
2018-04-16T00:43:34.291Z,65.30
2018-04-16T00:46:07.974Z,65.60
2018-04-16T00:48:41.763Z,65.50
2018-04-16T00:51:15.604Z,65.40
2018-04-16T00:54:01.411Z,65.80
2018-04-16T00:56:36.067Z,65.90
2018-04-16T00:59:09.746Z,65.80
2018-04-16T01:01:44.437Z,65.90
2018-04-16T01:04:18.136Z,65.80
2018-04-16T01:06:51.904Z,65.90
2018-04-16T01:09:25.637Z,66.00
2018-04-16T01:11:59.387Z,66.00
2018-04-16T01:14:34.124Z,66.70
2018-04-16T01:17:08.751Z,68.40
2018-04-16T01:19:43.405Z,67.40
2018-04-16T01:22:17.322Z,67.40
2018-04-16T01:24:50.988Z,67.00
2018-04-16T01:27:25.060Z,67.60
2018-04-16T01:29:58.809Z,67.80
2018-04-16T01:32:33.545Z,67.80
2018-04-16T01:35:07.320Z,67.80
2018-04-16T01:37:41.088Z,67.50
2018-04-16T01:40:14.812Z,67.40
2018-04-16T01:42:48.504Z,67.20
2018-04-16T01:45:22.183Z,67.10
2018-04-16T01:47:56.033Z,67.00
2018-04-16T01:50:29.946Z,66.90
2018-04-16T01:53:03.680Z,67.30
2018-04-16T01:55:37.471Z,67.40
2018-04-16T01:58:11.169Z,67.60
2018-04-16T02:00:44.998Z,68.00
2018-04-16T02:03:19.516Z,68.10
2018-04-16T02:05:54.157Z,68.70
2018-04-16T02:08:28.056Z,68.60
2018-04-16T02:11:02.616Z,68.40
2018-04-16T02:13:36.539Z,68.40
2018-04-16T02:16:10.415Z,68.60
2018-04-16T02:18:44.149Z,68.50
2018-04-16T02:21:17.878Z,68.40
2018-04-16T02:23:51.593Z,68.10
2018-04-16T02:26:26.184Z,69.00
2018-04-16T02:28:59.995Z,68.30
2018-04-16T02:31:33.842Z,68.60
2018-04-16T02:34:08.412Z,68.70
2018-04-16T02:36:42.241Z,68.60
2018-04-16T02:39:15.936Z,68.20
2018-04-16T02:41:49.666Z,68.00
2018-04-16T02:44:33.566Z,67.80
2018-04-16T02:47:07.442Z,67.60
2018-04-16T02:49:41.966Z,67.10
2018-04-16T02:52:15.820Z,67.10
2018-04-16T02:54:49.575Z,67.10
2018-04-16T02:57:23.410Z,67.00
2018-04-16T02:59:57.194Z,66.90
2018-04-16T03:02:30.964Z,67.20
2018-04-16T03:05:04.821Z,67.50
2018-04-16T03:07:38.552Z,67.20
2018-04-16T03:10:12.263Z,67.20
2018-04-16T03:12:45.978Z,67.10
2018-04-16T03:15:20.530Z,66.70
2018-04-16T03:17:55.007Z,66.50
2018-04-16T03:20:28.903Z,66.50
2018-04-16T03:23:02.572Z,66.40
2018-04-16T03:25:36.451Z,66.40
2018-04-16T03:28:10.186Z,66.30
2018-04-16T03:30:44.717Z,67.50
2018-04-16T03:33:18.438Z,67.40
2018-04-16T03:35:52.139Z,67.50
2018-04-16T03:38:26.009Z,67.40
2018-04-16T03:40:59.790Z,67.60
2018-04-16T03:43:33.602Z,68.10
2018-04-16T03:46:07.521Z,69.20
2018-04-16T03:48:41.274Z,68.40
2018-04-16T03:51:09.390Z,67.80
2018-04-16T03:53:41.112Z,68.30
2018-04-16T03:56:09.216Z,68.10
2018-04-16T03:58:37.336Z,68.30
2018-04-16T04:01:06.249Z,68.30
2018-04-16T04:03:34.348Z,68.30
2018-04-16T04:06:02.464Z,68.60
2018-04-16T04:08:30.599Z,68.60
2018-04-16T04:10:58.709Z,67.70
2018-04-16T04:13:26.840Z,68.20
2018-04-16T04:15:54.963Z,68.30
2018-04-16T04:18:23.068Z,68.30
2018-04-16T04:20:51.967Z,67.80
2018-04-16T04:23:32.627Z,67.70
2018-04-16T04:26:13.259Z,67.80
2018-04-16T04:28:53.140Z,67.60
2018-04-16T04:31:21.275Z,67.60
2018-04-16T04:33:49.391Z,67.40
2018-04-16T04:36:17.532Z,67.50
2018-04-16T04:38:46.920Z,67.60
2018-04-16T04:41:15.805Z,67.70
2018-04-16T04:43:43.925Z,67.70
2018-04-16T04:46:12.292Z,67.40
2018-04-16T04:48:40.406Z,67.70
2018-04-16T04:51:08.572Z,67.80
2018-04-16T04:53:36.673Z,67.70
2018-04-16T04:56:05.531Z,67.40
2018-04-16T04:58:33.644Z,67.40
2018-04-16T05:01:01.756Z,67.20
2018-04-16T05:03:29.902Z,67.00
2018-04-16T05:05:58.021Z,66.80
2018-04-16T05:08:26.147Z,66.70
2018-04-16T05:10:54.321Z,66.90
2018-04-16T05:13:23.186Z,67.80
2018-04-16T05:15:51.309Z,67.80
2018-04-16T05:18:19.413Z,68.20
2018-04-16T05:20:47.539Z,67.60
2018-04-16T05:23:16.434Z,68.00
2018-04-16T05:25:44.644Z,68.00
2018-04-16T05:28:12.777Z,68.60
2018-04-16T05:30:40.884Z,68.90
2018-04-16T05:33:09.105Z,69.40
2018-04-16T05:35:37.219Z,70.20
2018-04-16T05:38:06.364Z,70.60
2018-04-16T05:40:34.571Z,70.70
2018-04-16T05:43:02.700Z,70.70
2018-04-16T05:45:30.864Z,70.80
2018-04-16T05:47:58.984Z,70.80
2018-04-16T05:50:27.156Z,70.80
2018-04-16T05:52:55.297Z,70.70
2018-04-16T05:55:23.431Z,70.70
2018-04-16T05:57:51.584Z,70.60
2018-04-16T06:00:19.733Z,70.40
2018-04-16T06:02:48.620Z,69.90
2018-04-16T06:05:16.738Z,69.90
2018-04-16T06:07:44.861Z,69.30
2018-04-16T06:10:12.967Z,69.30
2018-04-16T06:12:41.097Z,69.20
2018-04-16T06:15:09.216Z,69.30
2018-04-16T06:17:37.347Z,69.70
2018-04-16T06:20:05.489Z,69.80
2018-04-16T06:22:33.590Z,70.00
2018-04-16T06:25:01.736Z,70.10
2018-04-16T06:27:29.955Z,70.30
2018-04-16T06:29:57.960Z,70.80
2018-04-16T06:32:26.846Z,71.30
2018-04-16T06:34:55.739Z,71.40
2018-04-16T06:37:24.632Z,71.40
2018-04-16T06:39:53.510Z,71.10
2018-04-16T06:42:21.789Z,71.00
2018-04-16T06:44:49.873Z,71.10
2018-04-16T06:47:17.973Z,71.10
2018-04-16T06:49:46.863Z,71.00
2018-04-16T06:52:14.976Z,70.80
2018-04-16T06:54:43.138Z,70.40
2018-04-16T06:57:11.279Z,70.30
2018-04-16T06:59:39.430Z,69.80
2018-04-16T07:02:07.556Z,69.70
2018-04-16T07:04:36.425Z,70.00
2018-04-16T07:07:04.537Z,69.90
2018-04-16T07:09:32.666Z,69.50
2018-04-16T07:12:00.784Z,69.40
2018-04-16T07:14:28.883Z,69.20
2018-04-16T07:16:57.023Z,68.90
2018-04-16T07:19:25.910Z,69.10
2018-04-16T07:21:54.033Z,69.10
2018-04-16T07:24:22.148Z,69.10
2018-04-16T07:26:50.258Z,69.30
2018-04-16T07:29:19.189Z,69.00
2018-04-16T07:31:47.300Z,69.00
2018-04-16T07:34:15.781Z,69.00
2018-04-16T07:36:43.888Z,69.30
2018-04-16T07:39:12.789Z,69.70
2018-04-16T07:41:42.394Z,69.50
2018-04-16T07:44:11.289Z,69.20
2018-04-16T07:46:40.167Z,69.10
2018-04-16T07:49:08.264Z,69.80
2018-04-16T07:51:36.395Z,69.30
2018-04-16T07:54:04.511Z,69.30
2018-04-16T07:56:33.376Z,69.90
2018-04-16T07:59:01.558Z,69.90
2018-04-16T08:01:29.732Z,70.00
2018-04-16T08:03:57.803Z,70.00
2018-04-16T08:06:26.007Z,69.90
2018-04-16T08:08:54.111Z,69.60
2018-04-16T08:11:22.226Z,69.50
2018-04-16T08:13:50.370Z,69.50
2018-04-16T08:16:18.488Z,69.40
2018-04-16T08:18:47.391Z,69.40
2018-04-16T08:21:15.562Z,69.30
2018-04-16T08:23:43.659Z,69.50
2018-04-16T08:26:11.785Z,69.50
2018-04-16T08:28:39.905Z,69.60
2018-04-16T08:31:08.007Z,69.60
2018-04-16T08:33:36.104Z,69.50
2018-04-16T08:36:04.224Z,69.30
2018-04-16T08:38:32.351Z,69.30
2018-04-16T08:41:00.481Z,69.10
2018-04-16T08:43:28.920Z,68.70
2018-04-16T08:45:57.023Z,68.40
2018-04-16T08:48:25.157Z,68.30
2018-04-16T08:50:53.271Z,67.90
2018-04-16T08:53:21.476Z,67.60
2018-04-16T08:55:49.602Z,67.40
2018-04-16T08:58:17.704Z,67.20
2018-04-16T09:00:45.839Z,67.20
2018-04-16T09:03:13.927Z,67.10
2018-04-16T09:05:42.060Z,67.30
2018-04-16T09:08:10.246Z,67.10
2018-04-16T09:10:38.367Z,66.90
2018-04-16T09:13:07.234Z,65.80
2018-04-16T09:15:36.107Z,65.20
2018-04-16T09:18:04.209Z,65.10
2018-04-16T09:20:33.138Z,64.60
2018-04-16T09:23:01.244Z,64.60
2018-04-16T09:25:29.364Z,64.50
2018-04-16T09:27:58.224Z,64.00
2018-04-16T09:30:26.351Z,64.00
2018-04-16T09:32:54.474Z,63.60
2018-04-16T09:35:22.578Z,63.40
2018-04-16T09:37:50.702Z,63.10
2018-04-16T09:40:18.796Z,62.60
2018-04-16T09:42:47.685Z,61.00
2018-04-16T09:45:15.792Z,61.00
2018-04-16T09:47:43.896Z,60.30
2018-04-16T09:50:12.791Z,59.70
2018-04-16T09:52:41.670Z,59.40
2018-04-16T09:55:10.550Z,59.10
2018-04-16T09:57:38.732Z,59.10
2018-04-16T10:00:06.804Z,58.80
2018-04-16T10:02:34.930Z,59.00
2018-04-16T10:05:03.048Z,59.20
2018-04-16T10:07:31.173Z,58.80
2018-04-16T10:09:59.264Z,59.00
2018-04-16T10:12:27.412Z,59.00
2018-04-16T10:14:55.579Z,59.00
2018-04-16T10:17:23.731Z,59.20
2018-04-16T10:19:51.856Z,59.20
2018-04-16T10:22:20.108Z,58.70
2018-04-16T10:24:48.199Z,58.90
2018-04-16T10:27:17.068Z,58.60
2018-04-16T10:29:45.218Z,58.60
2018-04-16T10:32:13.318Z,58.60
2018-04-16T10:34:41.464Z,58.50
2018-04-16T10:37:09.583Z,58.50
2018-04-16T10:39:37.671Z,58.30
2018-04-16T10:42:06.539Z,58.10
2018-04-16T10:44:34.647Z,58.00
2018-04-16T10:47:02.764Z,58.00
2018-04-16T10:49:30.867Z,58.30
2018-04-16T10:51:59.023Z,57.90
2018-04-16T10:54:27.119Z,57.70
2018-04-16T10:56:55.220Z,57.60
2018-04-16T10:59:23.315Z,57.10
2018-04-16T11:01:51.442Z,56.90
2018-04-16T11:04:19.593Z,56.50
2018-04-16T11:06:48.514Z,56.70
2018-04-16T11:09:16.590Z,56.20
2018-04-16T11:11:44.723Z,56.50
2018-04-16T11:14:12.816Z,56.70
2018-04-16T11:16:40.948Z,56.40
2018-04-16T11:19:09.099Z,56.50
2018-04-16T11:21:37.197Z,56.50
2018-04-16T11:24:05.295Z,56.40
2018-04-16T11:26:34.152Z,56.50
2018-04-16T11:29:02.299Z,56.50
2018-04-16T11:31:30.413Z,56.10
2018-04-16T11:33:58.519Z,55.90
2018-04-16T11:36:27.391Z,55.70
2018-04-16T11:38:55.493Z,55.70
2018-04-16T11:41:25.109Z,55.60
2018-04-16T11:43:53.231Z,55.60
2018-04-16T11:46:21.335Z,55.80
2018-04-16T11:48:49.464Z,55.60
2018-04-16T11:51:17.576Z,55.80
2018-04-16T11:53:45.672Z,55.60
2018-04-16T11:56:13.769Z,55.70
2018-04-16T11:58:41.899Z,54.90
2018-04-16T12:01:10.022Z,55.00
2018-04-16T12:03:38.878Z,55.40
2018-04-16T12:06:06.988Z,55.30
2018-04-16T12:08:35.891Z,55.20
2018-04-16T12:11:04.778Z,55.30
2018-04-16T12:13:33.652Z,55.30
2018-04-16T12:16:01.797Z,55.20
2018-04-16T12:18:30.009Z,56.30
2018-04-16T12:20:58.691Z,55.50
2018-04-16T12:23:26.792Z,55.00
2018-04-16T12:25:55.680Z,54.90
2018-04-16T12:28:24.539Z,55.00
2018-04-16T12:30:52.656Z,54.90
2018-04-16T12:33:21.533Z,54.30
2018-04-16T12:35:49.655Z,54.30
2018-04-16T12:38:17.772Z,54.30
2018-04-16T12:40:45.872Z,54.20
2018-04-16T12:43:14.003Z,54.00
2018-04-16T12:45:42.112Z,54.30
2018-04-16T12:48:10.301Z,54.10
2018-04-16T12:50:39.172Z,54.90
2018-04-16T12:53:07.270Z,54.90
2018-04-16T12:55:35.378Z,55.00
2018-04-16T12:58:03.485Z,53.60
2018-04-16T13:00:32.421Z,54.10
2018-04-16T13:03:01.292Z,53.90
2018-04-16T13:05:29.392Z,53.80
2018-04-16T13:07:58.267Z,54.40
2018-04-16T13:10:26.367Z,53.80
2018-04-16T13:12:55.253Z,53.90
2018-04-16T13:15:23.469Z,53.90
2018-04-16T13:17:51.572Z,53.90
2018-04-16T13:20:19.688Z,53.00
2018-04-16T13:22:47.781Z,53.30
2018-04-16T13:25:16.647Z,51.40
2018-04-16T13:27:44.765Z,51.30
2018-04-16T13:30:12.883Z,52.10
2018-04-16T13:32:40.994Z,52.60
2018-04-16T13:35:09.893Z,51.40
2018-04-16T13:37:38.796Z,50.60
2018-04-16T13:40:07.684Z,51.40
2018-04-16T13:42:36.556Z,51.60
2018-04-16T13:45:04.785Z,51.60
2018-04-16T13:47:32.893Z,52.10
2018-04-16T13:50:00.999Z,52.20
2018-04-16T13:52:29.881Z,52.20
2018-04-16T13:54:58.044Z,52.20
2018-04-16T13:57:26.131Z,52.10
2018-04-16T13:59:54.263Z,51.90
2018-04-16T14:02:22.380Z,51.90
2018-04-16T14:04:50.497Z,50.90
2018-04-16T14:07:19.352Z,51.40
2018-04-16T14:09:47.483Z,51.40
2018-04-16T14:12:15.620Z,52.00
2018-04-16T14:14:43.768Z,52.20
2018-04-16T14:17:12.102Z,51.90
2018-04-16T14:19:40.965Z,50.90
2018-04-16T14:22:09.090Z,50.90
2018-04-16T14:24:37.204Z,51.30
2018-04-16T14:27:05.299Z,51.20
2018-04-16T14:29:33.451Z,51.00
2018-04-16T14:32:01.533Z,50.70
2018-04-16T14:34:29.616Z,51.10
2018-04-16T14:36:57.743Z,51.40
2018-04-16T14:39:25.885Z,51.50
2018-04-16T14:41:54.064Z,51.40
2018-04-16T14:44:22.234Z,51.40
2018-04-16T14:46:50.362Z,51.50
2018-04-16T14:49:18.456Z,51.70
2018-04-16T14:51:46.590Z,51.70
2018-04-16T14:54:15.458Z,51.40
2018-04-16T14:56:43.875Z,51.30
2018-04-16T14:59:12.774Z,51.60
2018-04-16T15:01:41.656Z,51.20
2018-04-16T15:04:10.550Z,51.40
2018-04-16T15:06:39.428Z,51.40
2018-04-16T15:09:07.556Z,51.30
2018-04-16T15:11:35.662Z,51.40
2018-04-16T15:14:03.784Z,51.40
2018-04-16T15:16:35.657Z,52.10
2018-04-16T15:19:03.762Z,52.00
2018-04-16T15:21:31.864Z,52.10
2018-04-16T15:24:00.008Z,52.50
2018-04-16T15:26:28.101Z,51.70
2018-04-16T15:28:56.284Z,51.50
2018-04-16T15:31:24.398Z,51.80
2018-04-16T15:33:53.272Z,51.90
2018-04-16T15:36:21.398Z,51.90
2018-04-16T15:38:49.517Z,51.60
2018-04-16T15:41:17.656Z,51.00
2018-04-16T15:43:45.773Z,51.00
2018-04-16T15:46:13.881Z,50.80
2018-04-16T15:48:42.746Z,51.40
2018-04-16T15:51:10.875Z,51.30
2018-04-16T15:53:38.987Z,51.10
2018-04-16T15:56:07.101Z,51.90
2018-04-16T15:58:36.005Z,52.40
2018-04-16T16:01:04.907Z,51.50
2018-04-16T16:03:33.070Z,51.40
2018-04-16T16:06:02.084Z,52.00
2018-04-16T16:08:30.273Z,52.30
2018-04-16T16:10:58.405Z,52.40
2018-04-16T16:13:26.512Z,52.30
2018-04-16T16:15:55.390Z,53.10
2018-04-16T16:18:24.256Z,53.20
2018-04-16T16:20:52.450Z,53.10
2018-04-16T16:23:20.633Z,53.20
2018-04-16T16:25:48.721Z,52.90
2018-04-16T16:28:16.850Z,53.00
2018-04-16T16:30:44.968Z,52.90
2018-04-16T16:33:13.081Z,52.40
2018-04-16T16:35:41.175Z,52.50
2018-04-16T16:38:09.273Z,52.60
2018-04-16T16:40:37.427Z,52.40
2018-04-16T16:43:05.591Z,52.50
2018-04-16T16:45:33.883Z,51.90
2018-04-16T16:48:02.088Z,51.90
2018-04-16T16:50:31.213Z,52.60
2018-04-16T16:52:59.336Z,52.30
2018-04-16T16:55:27.439Z,52.00
2018-04-16T16:57:55.584Z,52.10
2018-04-16T17:00:23.692Z,52.50
2018-04-16T17:02:51.807Z,52.50
2018-04-16T17:05:20.707Z,52.20
2018-04-16T17:07:49.596Z,52.30
2018-04-16T17:10:18.759Z,52.90
2018-04-16T17:12:46.884Z,52.90
2018-04-16T17:15:14.980Z,53.20
2018-04-16T17:17:43.089Z,52.90
2018-04-16T17:20:11.279Z,52.50
2018-04-16T17:22:39.365Z,52.60
2018-04-16T17:25:07.481Z,52.50
2018-04-16T17:27:35.600Z,52.20
2018-04-16T17:30:03.710Z,52.20
2018-04-16T17:32:32.653Z,52.80
2018-04-16T17:35:00.748Z,52.80
2018-04-16T17:37:28.840Z,52.20
2018-04-16T17:39:56.987Z,52.40
2018-04-16T17:42:25.113Z,52.70
2018-04-16T17:44:54.012Z,52.50
2018-04-16T17:47:22.880Z,52.80
2018-04-16T17:49:50.997Z,52.80
2018-04-16T17:52:19.181Z,53.00
2018-04-16T17:54:47.297Z,53.00
2018-04-16T17:57:15.453Z,52.80
2018-04-16T17:59:43.572Z,53.10
2018-04-16T18:02:11.696Z,53.30
2018-04-16T18:04:39.854Z,52.70
2018-04-16T18:07:07.975Z,53.20
2018-04-16T18:09:36.105Z,54.20
2018-04-16T18:12:04.984Z,53.80
2018-04-16T18:14:33.876Z,53.80
2018-04-16T18:17:01.983Z,53.80
2018-04-16T18:19:30.100Z,53.90
2018-04-16T18:21:58.199Z,54.00
2018-04-16T18:24:26.372Z,54.10
2018-04-16T18:26:54.509Z,54.10
2018-04-16T18:29:23.344Z,54.30
2018-04-16T18:31:52.315Z,54.20
2018-04-16T18:34:20.416Z,54.20
2018-04-16T18:36:48.585Z,54.20
2018-04-16T18:39:16.701Z,54.20
2018-04-16T18:41:45.571Z,54.40
2018-04-16T18:44:13.768Z,54.30
2018-04-16T18:46:42.827Z,54.50
2018-04-16T18:49:10.941Z,54.40
2018-04-16T18:51:39.095Z,54.50
2018-04-16T18:54:07.200Z,54.60
2018-04-16T18:56:36.080Z,54.70
2018-04-16T18:59:04.960Z,54.70
2018-04-16T19:01:33.065Z,54.60
2018-04-16T19:04:01.931Z,54.80
2018-04-16T19:06:30.034Z,54.70
2018-04-16T19:08:58.914Z,54.90
2018-04-16T19:11:27.032Z,54.90
2018-04-16T19:13:55.176Z,54.90
2018-04-16T19:16:23.316Z,54.90
2018-04-16T19:18:52.487Z,55.00
2018-04-16T19:21:26.372Z,55.00
2018-04-16T19:23:54.552Z,55.10
2018-04-16T19:26:22.791Z,55.20
2018-04-16T19:28:50.911Z,55.20
2018-04-16T19:31:19.040Z,55.20
2018-04-16T19:33:52.783Z,55.30
2018-04-16T19:36:21.673Z,55.40
2018-04-16T19:38:49.836Z,55.40
2018-04-16T19:41:17.949Z,55.40
2018-04-16T19:43:46.066Z,55.40
2018-04-16T19:46:15.048Z,56.10
2018-04-16T19:48:48.760Z,55.50
2018-04-16T19:51:16.875Z,55.60
2018-04-16T19:53:45.038Z,55.60
2018-04-16T19:56:18.984Z,55.70
2018-04-16T19:58:47.115Z,55.70
2018-04-16T20:01:15.223Z,55.80
2018-04-16T20:03:58.980Z,55.90
2018-04-16T20:06:27.107Z,55.90
2018-04-16T20:08:55.234Z,56.00
2018-04-16T20:11:23.350Z,56.00
2018-04-16T20:13:51.541Z,56.10
2018-04-16T20:16:19.704Z,56.20
2018-04-16T20:18:47.826Z,56.20
2018-04-16T20:21:16.818Z,56.20
2018-04-16T20:23:45.751Z,56.20
2018-04-16T20:26:13.869Z,56.30
2018-04-16T20:28:42.776Z,56.40
2018-04-16T20:31:11.301Z,56.40
2018-04-16T20:33:39.701Z,56.50
2018-04-16T20:36:07.846Z,56.50
2018-04-16T20:38:36.881Z,56.50
2018-04-16T20:41:05.020Z,56.60
2018-04-16T20:43:33.152Z,56.60
2018-04-16T20:46:02.087Z,56.70
2018-04-16T20:48:30.976Z,56.70
2018-04-16T20:50:59.864Z,56.60
2018-04-16T20:53:28.012Z,56.60
2018-04-16T20:55:56.158Z,56.70
2018-04-16T20:58:24.280Z,56.80
2018-04-16T21:00:52.361Z,56.90
2018-04-16T21:03:20.684Z,56.90
2018-04-16T21:05:49.591Z,57.50
2018-04-16T21:08:17.818Z,57.10
2018-04-16T21:10:45.919Z,57.10
2018-04-16T21:13:14.821Z,57.30
2018-04-16T21:15:43.684Z,57.40
2018-04-16T21:18:11.796Z,57.30
2018-04-16T21:20:39.935Z,57.40
2018-04-16T21:23:08.028Z,57.40
2018-04-16T21:25:36.162Z,57.50
2018-04-16T21:28:04.248Z,57.50
2018-04-16T21:30:32.358Z,57.60
2018-04-16T21:33:01.291Z,57.80
2018-04-16T21:35:29.444Z,57.80
2018-04-16T21:37:57.589Z,57.70
2018-04-16T21:40:25.813Z,57.90
2018-04-16T21:42:53.965Z,58.60
2018-04-16T21:45:22.071Z,58.10
2018-04-16T21:47:50.491Z,58.00
2018-04-16T21:50:18.623Z,58.20
2018-04-16T21:52:46.736Z,58.20
2018-04-16T21:55:14.869Z,58.20
2018-04-16T21:57:43.732Z,58.40
2018-04-16T22:00:11.839Z,58.30
2018-04-16T22:02:40.744Z,58.50
2018-04-16T22:05:08.952Z,58.50
2018-04-16T22:07:37.168Z,58.60
2018-04-16T22:10:05.303Z,58.60
2018-04-16T22:12:33.465Z,58.60
2018-04-16T22:15:01.566Z,58.60
2018-04-16T22:17:29.664Z,58.70
2018-04-16T22:19:57.802Z,58.70
2018-04-16T22:22:25.924Z,58.80
2018-04-16T22:24:54.215Z,58.80
2018-04-16T22:27:22.330Z,58.80
2018-04-16T22:29:50.439Z,58.90
2018-04-16T22:32:18.587Z,58.90
2018-04-16T22:34:46.796Z,58.90
2018-04-16T22:37:14.923Z,59.00
2018-04-16T22:39:43.041Z,59.00
2018-04-16T22:42:11.153Z,59.10
2018-04-16T22:44:39.255Z,59.10
2018-04-16T22:47:07.385Z,59.20
2018-04-16T22:49:35.503Z,59.10
2018-04-16T22:52:04.371Z,59.20
2018-04-16T22:54:32.480Z,59.20
2018-04-16T22:57:00.594Z,59.20
2018-04-16T22:59:28.726Z,59.20
2018-04-16T23:01:56.856Z,59.30
2018-04-16T23:04:24.962Z,59.40
2018-04-16T23:06:53.059Z,59.30
2018-04-16T23:09:21.935Z,59.30
2018-04-16T23:11:51.011Z,59.30
2018-04-16T23:14:19.135Z,59.40
2018-04-16T23:16:48.000Z,59.50
2018-04-16T23:19:16.131Z,59.40
2018-04-16T23:21:44.284Z,59.50
2018-04-16T23:24:13.184Z,59.50
2018-04-16T23:26:41.296Z,59.50
2018-04-16T23:29:09.390Z,59.40
2018-04-16T23:31:37.494Z,59.50
2018-04-16T23:34:06.352Z,60.00
2018-04-16T23:36:34.471Z,59.60
2018-04-16T23:39:03.363Z,59.60
2018-04-16T23:41:32.245Z,59.60
2018-04-16T23:44:00.352Z,59.60
2018-04-16T23:46:28.495Z,59.70
2018-04-16T23:48:56.612Z,59.70
2018-04-16T23:51:24.770Z,60.30
2018-04-16T23:53:53.653Z,59.80
2018-04-16T23:56:21.799Z,59.70
2018-04-16T23:58:49.948Z,59.80
